Maimiti — PBIJ — position and weather

sailwx.info

Track history (hours):
 
Tides and Currents Weather Stations Pressure Air Temp Water Temp Dewpoint Dewpoint Depression Visibility Wind Speed Wind Dir Waves Ship Positions

Maimiti

Last reported at 2016-Dec-03 22:19 UTC. Time now 2016-Dec-04 01:57 UTC.
Position N 54°51' E 014°06'.

Length 35 m; draft 6.9 m.

Type: Tug. MMSI: 244850959.

Date/timePositionNaut miles runAvg speedWind from/ knotsBaromVisibWave heightAir tempDewpointWater temp
2016-Dec-03 22:19N 54°51' E 014°06'0 0.0
2016-Dec-03 21:28N 54°51' E 014°06'0 0.5
2016-Dec-03 20:33N 54°52' E 014°06'0 0.0
2016-Dec-03 19:32N 54°52' E 014°06'0 0.0
2016-Dec-03 18:33N 54°52' E 014°06'0 0.4
2016-Dec-03 17:18N 54°51' E 014°06'0 0.0
2016-Dec-03 16:30N 54°51' E 014°06'0 0.0
2016-Dec-03 15:32N 54°51' E 014°06'0 0.4
2016-Dec-03 14:33N 54°52' E 014°06'0 0.5
2016-Dec-03 13:32N 54°51' E 014°07'1 0.4
2016-Dec-03 11:28N 54°52' E 014°07'1 0.6
2016-Dec-03 10:24N 54°52' E 014°06'1 0.7
2016-Dec-03 09:33N 54°52' E 014°06'0 0.4
2016-Dec-03 08:33N 54°52' E 014°06'1 1.0
2016-Dec-03 07:19N 54°52' E 014°08'0 0.3
2016-Dec-03 06:33N 54°52' E 014°07'0 0.2
2016-Dec-03 05:33N 54°52' E 014°08'  
2016-Nov-25 20:21N 54°30' E 013°41'21 6.7
2016-Nov-25 17:15N 54°46' E 014°04'5 7.8
2016-Nov-25 16:33N 54°51' E 014°08'1 0.8
2016-Nov-25 15:31N 54°51' E 014°07'0 0.2
2016-Nov-25 13:31N 54°52' E 014°06'0 0.2
2016-Nov-25 12:33N 54°52' E 014°06'1 0.7
2016-Nov-25 11:28N 54°51' E 014°07'1 0.5
2016-Nov-25 10:33N 54°51' E 014°06'0 0.0
2016-Nov-25 09:22N 54°51' E 014°06'0 0.0
2016-Nov-25 08:32N 54°51' E 014°06'0 0.0
2016-Nov-25 07:33N 54°51' E 014°06'0 0.0
2016-Nov-25 06:32N 54°51' E 014°06'0 0.0
2016-Nov-25 05:33N 54°51' E 014°06'0 0.0
2016-Nov-25 04:32N 54°51' E 014°06'0 0.0
2016-Nov-25 03:32N 54°51' E 014°06'0 0.0
2016-Nov-25 02:32N 54°51' E 014°06'0 0.0
2016-Nov-25 01:28N 54°51' E 014°06'0 0.0
2016-Nov-25 00:33N 54°51' E 014°06'0 0.0
2016-Nov-24 23:31N 54°51' E 014°06'0 0.0
2016-Nov-24 22:33N 54°51' E 014°06'0 0.0
2016-Nov-24 21:32N 54°51' E 014°06'0 0.0
2016-Nov-24 20:30N 54°51' E 014°06'0 0.0
2016-Nov-24 19:28N 54°51' E 014°06'0 0.0
2016-Nov-24 18:33N 54°51' E 014°06'0 0.0
2016-Nov-24 17:28N 54°51' E 014°06'0 0.0
2016-Nov-24 16:30N 54°51' E 014°06'0 0.0
2016-Nov-24 15:29N 54°51' E 014°06'28 1.7
2016-Nov-23 22:25N 54°29' E 013°35'  
Track history (hours):
 
Tides and Currents Weather Stations Pressure Air Temp Water Temp Dewpoint Dewpoint Depression Visibility Wind Speed Wind Dir Waves Ship Positions

Maimiti

Last reported at 2016-Dec-03 22:19 UTC. Time now 2016-Dec-04 01:57 UTC.
Position N 54°51' E 014°06'.

Length 35 m; draft 6.9 m.

Type: Tug. MMSI: 244850959.

Date/timePositionNaut miles runAvg speedWind from/ knotsBaromVisibWave heightAir tempDewpointWater temp
2016-Dec-03 22:19N 54°51' E 014°06'0 0.0
2016-Dec-03 21:28N 54°51' E 014°06'0 0.5
2016-Dec-03 20:33N 54°52' E 014°06'0 0.0
2016-Dec-03 19:32N 54°52' E 014°06'0 0.0
2016-Dec-03 18:33N 54°52' E 014°06'0 0.4
2016-Dec-03 17:18N 54°51' E 014°06'0 0.0
2016-Dec-03 16:30N 54°51' E 014°06'0 0.0
2016-Dec-03 15:32N 54°51' E 014°06'0 0.4
2016-Dec-03 14:33N 54°52' E 014°06'0 0.5
2016-Dec-03 13:32N 54°51' E 014°07'1 0.4
2016-Dec-03 11:28N 54°52' E 014°07'1 0.6
2016-Dec-03 10:24N 54°52' E 014°06'1 0.7
2016-Dec-03 09:33N 54°52' E 014°06'0 0.4
2016-Dec-03 08:33N 54°52' E 014°06'1 1.0
2016-Dec-03 07:19N 54°52' E 014°08'0 0.3
2016-Dec-03 06:33N 54°52' E 014°07'0 0.2
2016-Dec-03 05:33N 54°52' E 014°08'  
2016-Nov-25 20:21N 54°30' E 013°41'21 6.7
2016-Nov-25 17:15N 54°46' E 014°04'5 7.8
2016-Nov-25 16:33N 54°51' E 014°08'1 0.8
2016-Nov-25 15:31N 54°51' E 014°07'0 0.2
2016-Nov-25 13:31N 54°52' E 014°06'0 0.2
2016-Nov-25 12:33N 54°52' E 014°06'1 0.7
2016-Nov-25 11:28N 54°51' E 014°07'1 0.5
2016-Nov-25 10:33N 54°51' E 014°06'0 0.0
2016-Nov-25 09:22N 54°51' E 014°06'0 0.0
2016-Nov-25 08:32N 54°51' E 014°06'0 0.0
2016-Nov-25 07:33N 54°51' E 014°06'0 0.0
2016-Nov-25 06:32N 54°51' E 014°06'0 0.0
2016-Nov-25 05:33N 54°51' E 014°06'0 0.0
2016-Nov-25 04:32N 54°51' E 014°06'0 0.0
2016-Nov-25 03:32N 54°51' E 014°06'0 0.0
2016-Nov-25 02:32N 54°51' E 014°06'0 0.0
2016-Nov-25 01:28N 54°51' E 014°06'0 0.0
2016-Nov-25 00:33N 54°51' E 014°06'0 0.0
2016-Nov-24 23:31N 54°51' E 014°06'0 0.0
2016-Nov-24 22:33N 54°51' E 014°06'0 0.0
2016-Nov-24 21:32N 54°51' E 014°06'0 0.0
2016-Nov-24 20:30N 54°51' E 014°06'0 0.0
2016-Nov-24 19:28N 54°51' E 014°06'0 0.0
2016-Nov-24 18:33N 54°51' E 014°06'0 0.0
2016-Nov-24 17:28N 54°51' E 014°06'0 0.0
2016-Nov-24 16:30N 54°51' E 014°06'0 0.0
2016-Nov-24 15:29N 54°51' E 014°06'28 1.7
2016-Nov-23 22:25N 54°29' E 013°35'  

Dump ship's entire track history